sensor_id;sensor_type;location;lat;lon;timestamp;temperature;humidity
1219;DHT22;599;51.494;6.670;2022-09-09T00:02:00;15.70;99.90
1219;DHT22;599;51.494;6.670;2022-09-09T00:04:34;15.70;1.00
1219;DHT22;599;51.494;6.670;2022-09-09T00:09:53;15.70;99.90
1219;DHT22;599;51.494;6.670;2022-09-09T00:21:14;15.50;1.00
1219;DHT22;599;51.494;6.670;2022-09-09T00:24:04;15.50;1.00
1219;DHT22;599;51.494;6.670;2022-09-09T00:27:26;15.40;1.00
1219;DHT22;599;51.494;6.670;2022-09-09T00:30:22;15.40;1.00
1219;DHT22;599;51.494;6.670;2022-09-09T00:33:12;15.30;99.90
1219;DHT22;599;51.494;6.670;2022-09-09T00:35:51;15.20;99.90
1219;DHT22;599;51.494;6.670;2022-09-09T00:41:47;15.20;1.00
1219;DHT22;599;51.494;6.670;2022-09-09T00:44:34;15.20;1.00
1219;DHT22;599;51.494;6.670;2022-09-09T00:47:17;15.30;1.00
1219;DHT22;599;51.494;6.670;2022-09-09T00:50:39;15.30;1.00
1219;DHT22;599;51.494;6.670;2022-09-09T00:56:25;15.40;1.00
1219;DHT22;599;51.494;6.670;2022-09-09T01:01:54;15.40;1.00
1219;DHT22;599;51.494;6.670;2022-09-09T01:04:29;15.30;1.00
1219;DHT22;599;51.494;6.670;2022-09-09T01:07:18;15.30;1.00
1219;DHT22;599;51.494;6.670;2022-09-09T01:09:52;15.30;1.00
1219;DHT22;599;51.494;6.670;2022-09-09T01:12:27;15.20;1.00
1219;DHT22;599;51.494;6.670;2022-09-09T01:18:10;15.20;1.00
1219;DHT22;599;51.494;6.670;2022-09-09T01:27:01;15.30;1.00
1219;DHT22;599;51.494;6.670;2022-09-09T01:29:28;15.30;1.00
1219;DHT22;599;51.494;6.670;2022-09-09T01:34:47;15.20;1.00
1219;DHT22;599;51.494;6.670;2022-09-09T01:37:13;15.30;1.00
1219;DHT22;599;51.494;6.670;2022-09-09T01:39:42;15.30;1.00
1219;DHT22;599;51.494;6.670;2022-09-09T01:42:13;15.30;1.00
1219;DHT22;599;51.494;6.670;2022-09-09T01:44:41;15.40;1.00
1219;DHT22;599;51.494;6.670;2022-09-09T01:47:07;15.30;1.00
1219;DHT22;599;51.494;6.670;2022-09-09T01:49:40;15.30;1.00
1219;DHT22;599;51.494;6.670;2022-09-09T01:52:16;15.30;1.00
1219;DHT22;599;51.494;6.670;2022-09-09T01:54:42;15.30;1.00
1219;DHT22;599;51.494;6.670;2022-09-09T01:57:23;15.30;1.00
1219;DHT22;599;51.494;6.670;2022-09-09T02:00:12;15.40;1.00
1219;DHT22;599;51.494;6.670;2022-09-09T02:05:32;15.50;1.00
1219;DHT22;599;51.494;6.670;2022-09-09T02:11:05;15.50;1.00
1219;DHT22;599;51.494;6.670;2022-09-09T02:13:43;15.50;1.00
1219;DHT22;599;51.494;6.670;2022-09-09T02:16:21;15.40;1.00
1219;DHT22;599;51.494;6.670;2022-09-09T02:21:32;15.50;99.90
1219;DHT22;599;51.494;6.670;2022-09-09T02:24:03;15.50;1.00
1219;DHT22;599;51.494;6.670;2022-09-09T02:26:40;15.50;1.00
1219;DHT22;599;51.494;6.670;2022-09-09T02:29:25;15.50;1.00
1219;DHT22;599;51.494;6.670;2022-09-09T02:31:57;15.60;1.00
1219;DHT22;599;51.494;6.670;2022-09-09T02:34:32;15.60;1.00
1219;DHT22;599;51.494;6.670;2022-09-09T02:37:03;15.60;1.00
1219;DHT22;599;51.494;6.670;2022-09-09T02:39:29;15.60;1.00
1219;DHT22;599;51.494;6.670;2022-09-09T02:41:55;15.60;1.00
1219;DHT22;599;51.494;6.670;2022-09-09T02:44:28;15.60;1.00
1219;DHT22;599;51.494;6.670;2022-09-09T02:47:16;15.70;1.00
1219;DHT22;599;51.494;6.670;2022-09-09T02:57:56;15.50;1.00
1219;DHT22;599;51.494;6.670;2022-09-09T03:00:26;15.50;1.00
1219;DHT22;599;51.494;6.670;2022-09-09T03:02:55;15.50;1.00
1219;DHT22;599;51.494;6.670;2022-09-09T03:05:21;15.50;1.00
1219;DHT22;599;51.494;6.670;2022-09-09T03:07:48;15.50;99.90
1219;DHT22;599;51.494;6.670;2022-09-09T03:10:16;15.40;1.00
1219;DHT22;599;51.494;6.670;2022-09-09T03:12:43;15.50;1.00
1219;DHT22;599;51.494;6.670;2022-09-09T03:15:09;15.50;1.00
1219;DHT22;599;51.494;6.670;2022-09-09T03:17:37;15.50;1.00
1219;DHT22;599;51.494;6.670;2022-09-09T03:20:04;15.50;1.00
1219;DHT22;599;51.494;6.670;2022-09-09T03:22:31;15.50;1.00
1219;DHT22;599;51.494;6.670;2022-09-09T03:24:59;15.60;99.90
1219;DHT22;599;51.494;6.670;2022-09-09T03:27:24;15.60;1.00
1219;DHT22;599;51.494;6.670;2022-09-09T03:29:51;15.70;99.90
1219;DHT22;599;51.494;6.670;2022-09-09T03:32:20;15.70;99.90
1219;DHT22;599;51.494;6.670;2022-09-09T03:34:48;15.70;1.00
1219;DHT22;599;51.494;6.670;2022-09-09T03:37:19;15.70;1.00
1219;DHT22;599;51.494;6.670;2022-09-09T03:39:46;15.70;1.00
1219;DHT22;599;51.494;6.670;2022-09-09T03:42:15;15.70;99.90
1219;DHT22;599;51.494;6.670;2022-09-09T03:44:48;15.70;99.90
1219;DHT22;599;51.494;6.670;2022-09-09T03:47:18;15.60;99.90
1219;DHT22;599;51.494;6.670;2022-09-09T03:49:45;15.70;1.00
1219;DHT22;599;51.494;6.670;2022-09-09T03:52:12;15.70;1.00
1219;DHT22;599;51.494;6.670;2022-09-09T03:54:38;15.70;99.90
1219;DHT22;599;51.494;6.670;2022-09-09T03:57:05;15.80;1.00
1219;DHT22;599;51.494;6.670;2022-09-09T03:59:31;15.70;99.90
1219;DHT22;599;51.494;6.670;2022-09-09T04:01:57;15.70;1.00
1219;DHT22;599;51.494;6.670;2022-09-09T04:04:25;15.80;1.00
1219;DHT22;599;51.494;6.670;2022-09-09T04:06:54;15.80;99.90
1219;DHT22;599;51.494;6.670;2022-09-09T04:09:22;15.70;86.90
1219;DHT22;599;51.494;6.670;2022-09-09T04:11:50;15.90;1.00
1219;DHT22;599;51.494;6.670;2022-09-09T04:14:17;15.90;1.00
1219;DHT22;599;51.494;6.670;2022-09-09T04:16:43;15.90;1.00
1219;DHT22;599;51.494;6.670;2022-09-09T04:19:12;15.90;1.00
1219;DHT22;599;51.494;6.670;2022-09-09T04:21:41;16.00;99.90
1219;DHT22;599;51.494;6.670;2022-09-09T04:24:08;16.00;1.00
1219;DHT22;599;51.494;6.670;2022-09-09T04:26:35;16.00;1.00
1219;DHT22;599;51.494;6.670;2022-09-09T04:29:04;16.00;1.00
1219;DHT22;599;51.494;6.670;2022-09-09T04:31:34;16.00;1.00
1219;DHT22;599;51.494;6.670;2022-09-09T04:34:00;16.10;99.90
1219;DHT22;599;51.494;6.670;2022-09-09T04:36:32;16.10;1.00
1219;DHT22;599;51.494;6.670;2022-09-09T04:39:01;16.10;1.00
1219;DHT22;599;51.494;6.670;2022-09-09T04:41:27;16.10;99.90
1219;DHT22;599;51.494;6.670;2022-09-09T04:43:54;16.20;99.90
1219;DHT22;599;51.494;6.670;2022-09-09T04:46:22;16.20;28.50
1219;DHT22;599;51.494;6.670;2022-09-09T04:48:51;16.20;99.90
1219;DHT22;599;51.494;6.670;2022-09-09T04:51:18;16.20;99.90
1219;DHT22;599;51.494;6.670;2022-09-09T04:53:47;16.20;1.00
1219;DHT22;599;51.494;6.670;2022-09-09T04:56:17;16.10;1.00
1219;DHT22;599;51.494;6.670;2022-09-09T04:58:49;16.10;34.80
1219;DHT22;599;51.494;6.670;2022-09-09T05:01:18;16.20;1.00
1219;DHT22;599;51.494;6.670;2022-09-09T05:03:46;16.10;1.00
1219;DHT22;599;51.494;6.670;2022-09-09T05:06:17;16.20;99.90
1219;DHT22;599;51.494;6.670;2022-09-09T05:08:46;16.20;99.90
1219;DHT22;599;51.494;6.670;2022-09-09T05:11:27;16.20;1.00
1219;DHT22;599;51.494;6.670;2022-09-09T05:14:07;16.30;99.90
1219;DHT22;599;51.494;6.670;2022-09-09T05:16:34;16.20;99.90
1219;DHT22;599;51.494;6.670;2022-09-09T05:18:59;16.20;99.90
1219;DHT22;599;51.494;6.670;2022-09-09T05:21:34;16.20;1.00
1219;DHT22;599;51.494;6.670;2022-09-09T05:24:00;16.20;99.90
1219;DHT22;599;51.494;6.670;2022-09-09T05:26:26;16.30;6.30
1219;DHT22;599;51.494;6.670;2022-09-09T05:28:53;16.20;99.90
1219;DHT22;599;51.494;6.670;2022-09-09T05:31:20;16.20;1.00
1219;DHT22;599;51.494;6.670;2022-09-09T05:33:50;16.10;1.00
1219;DHT22;599;51.494;6.670;2022-09-09T05:36:18;16.20;1.00
1219;DHT22;599;51.494;6.670;2022-09-09T05:38:48;16.10;1.00
1219;DHT22;599;51.494;6.670;2022-09-09T05:41:16;16.10;99.90
1219;DHT22;599;51.494;6.670;2022-09-09T05:43:44;16.10;1.00
1219;DHT22;599;51.494;6.670;2022-09-09T05:46:13;16.10;1.00
1219;DHT22;599;51.494;6.670;2022-09-09T05:48:43;16.10;22.30
1219;DHT22;599;51.494;6.670;2022-09-09T05:51:20;16.10;62.80
1219;DHT22;599;51.494;6.670;2022-09-09T05:53:48;16.20;99.90
1219;DHT22;599;51.494;6.670;2022-09-09T05:56:20;16.20;99.90
1219;DHT22;599;51.494;6.670;2022-09-09T05:58:55;16.20;1.00
1219;DHT22;599;51.494;6.670;2022-09-09T06:01:24;16.20;1.00
1219;DHT22;599;51.494;6.670;2022-09-09T06:03:52;16.20;38.10
1219;DHT22;599;51.494;6.670;2022-09-09T06:06:25;16.20;99.90
1219;DHT22;599;51.494;6.670;2022-09-09T06:08:55;16.20;1.00
1219;DHT22;599;51.494;6.670;2022-09-09T06:11:29;16.20;1.00
1219;DHT22;599;51.494;6.670;2022-09-09T06:14:00;16.20;1.00
1219;DHT22;599;51.494;6.670;2022-09-09T06:16:28;16.30;1.00
1219;DHT22;599;51.494;6.670;2022-09-09T06:18:56;16.30;1.00
1219;DHT22;599;51.494;6.670;2022-09-09T06:21:27;16.30;1.00
1219;DHT22;599;51.494;6.670;2022-09-09T06:23:56;16.40;99.90
1219;DHT22;599;51.494;6.670;2022-09-09T06:26:24;16.40;99.90
1219;DHT22;599;51.494;6.670;2022-09-09T06:28:53;16.50;99.90
1219;DHT22;599;51.494;6.670;2022-09-09T06:31:22;16.60;88.20
1219;DHT22;599;51.494;6.670;2022-09-09T06:33:53;16.70;1.00
1219;DHT22;599;51.494;6.670;2022-09-09T06:36:25;16.80;1.00
1219;DHT22;599;51.494;6.670;2022-09-09T06:38:53;16.90;1.00
1219;DHT22;599;51.494;6.670;2022-09-09T06:41:20;16.90;99.90
1219;DHT22;599;51.494;6.670;2022-09-09T06:43:48;16.90;1.00
1219;DHT22;599;51.494;6.670;2022-09-09T06:46:26;16.90;99.90
1219;DHT22;599;51.494;6.670;2022-09-09T06:48:54;16.90;99.90
1219;DHT22;599;51.494;6.670;2022-09-09T06:51:27;16.90;1.00
1219;DHT22;599;51.494;6.670;2022-09-09T06:53:57;16.90;99.90
1219;DHT22;599;51.494;6.670;2022-09-09T06:56:29;16.90;1.00
1219;DHT22;599;51.494;6.670;2022-09-09T06:59:04;17.00;99.90
1219;DHT22;599;51.494;6.670;2022-09-09T07:01:34;17.20;1.00
1219;DHT22;599;51.494;6.670;2022-09-09T07:04:05;17.40;1.00
1219;DHT22;599;51.494;6.670;2022-09-09T07:06:36;17.40;1.00
1219;DHT22;599;51.494;6.670;2022-09-09T07:09:08;17.50;99.90
1219;DHT22;599;51.494;6.670;2022-09-09T07:11:40;17.60;1.00
1219;DHT22;599;51.494;6.670;2022-09-09T07:14:07;17.70;1.00
1219;DHT22;599;51.494;6.670;2022-09-09T07:16:34;17.70;99.90
1219;DHT22;599;51.494;6.670;2022-09-09T07:19:03;17.70;99.90
1219;DHT22;599;51.494;6.670;2022-09-09T07:21:31;17.80;1.00
1219;DHT22;599;51.494;6.670;2022-09-09T07:23:58;17.90;1.00
1219;DHT22;599;51.494;6.670;2022-09-09T07:26:26;17.90;1.00
1219;DHT22;599;51.494;6.670;2022-09-09T07:28:54;17.80;99.90
1219;DHT22;599;51.494;6.670;2022-09-09T07:31:26;17.90;99.90
1219;DHT22;599;51.494;6.670;2022-09-09T07:33:56;17.90;99.90
1219;DHT22;599;51.494;6.670;2022-09-09T07:36:24;17.80;99.90
1219;DHT22;599;51.494;6.670;2022-09-09T07:38:56;17.90;1.00
1219;DHT22;599;51.494;6.670;2022-09-09T07:41:33;18.00;1.00
1219;DHT22;599;51.494;6.670;2022-09-09T07:44:18;18.00;1.00
1219;DHT22;599;51.494;6.670;2022-09-09T07:46:49;18.10;99.90
1219;DHT22;599;51.494;6.670;2022-09-09T07:49:19;18.20;99.90
1219;DHT22;599;51.494;6.670;2022-09-09T07:51:46;18.20;80.60
1219;DHT22;599;51.494;6.670;2022-09-09T07:54:16;18.20;99.90
1219;DHT22;599;51.494;6.670;2022-09-09T07:56:47;18.30;1.00
1219;DHT22;599;51.494;6.670;2022-09-09T07:59:13;18.20;99.90
1219;DHT22;599;51.494;6.670;2022-09-09T08:01:49;18.30;1.00
1219;DHT22;599;51.494;6.670;2022-09-09T08:04:23;18.30;1.00
1219;DHT22;599;51.494;6.670;2022-09-09T08:06:57;18.30;44.40
1219;DHT22;599;51.494;6.670;2022-09-09T08:09:27;18.40;99.90
1219;DHT22;599;51.494;6.670;2022-09-09T08:12:01;18.60;1.00
1219;DHT22;599;51.494;6.670;2022-09-09T08:14:28;18.60;1.00
1219;DHT22;599;51.494;6.670;2022-09-09T08:16:55;18.70;1.00
1219;DHT22;599;51.494;6.670;2022-09-09T08:19:24;18.60;1.00
1219;DHT22;599;51.494;6.670;2022-09-09T08:21:51;18.50;1.00
1219;DHT22;599;51.494;6.670;2022-09-09T08:24:17;18.40;1.00
1219;DHT22;599;51.494;6.670;2022-09-09T08:26:48;18.50;1.00
1219;DHT22;599;51.494;6.670;2022-09-09T08:29:16;18.50;1.00
1219;DHT22;599;51.494;6.670;2022-09-09T08:31:49;18.50;1.00
1219;DHT22;599;51.494;6.670;2022-09-09T08:34:17;18.60;1.00
1219;DHT22;599;51.494;6.670;2022-09-09T08:36:48;18.60;1.00
1219;DHT22;599;51.494;6.670;2022-09-09T08:39:18;18.70;1.00
1219;DHT22;599;51.494;6.670;2022-09-09T08:47:43;19.60;99.90
1219;DHT22;599;51.494;6.670;2022-09-09T08:53:29;19.70;99.90
1219;DHT22;599;51.494;6.670;2022-09-09T08:56:11;19.60;99.90
1219;DHT22;599;51.494;6.670;2022-09-09T08:58:53;19.40;99.90
1219;DHT22;599;51.494;6.670;2022-09-09T09:01:35;19.30;99.90
1219;DHT22;599;51.494;6.670;2022-09-09T09:07:39;19.20;99.90
1219;DHT22;599;51.494;6.670;2022-09-09T09:13:13;19.20;99.90
1219;DHT22;599;51.494;6.670;2022-09-09T09:15:51;19.10;99.90
1219;DHT22;599;51.494;6.670;2022-09-09T09:18:20;19.20;99.90
1219;DHT22;599;51.494;6.670;2022-09-09T09:20:54;19.10;99.90
1219;DHT22;599;51.494;6.670;2022-09-09T09:23:57;19.10;99.90
1219;DHT22;599;51.494;6.670;2022-09-09T09:26:33;19.00;99.90
1219;DHT22;599;51.494;6.670;2022-09-09T09:29:10;19.00;99.90
1219;DHT22;599;51.494;6.670;2022-09-09T09:31:38;19.00;99.90
1219;DHT22;599;51.494;6.670;2022-09-09T09:34:04;19.00;99.90
1219;DHT22;599;51.494;6.670;2022-09-09T09:36:39;19.00;99.90
1219;DHT22;599;51.494;6.670;2022-09-09T09:39:09;18.90;99.90
1219;DHT22;599;51.494;6.670;2022-09-09T09:41:38;19.00;99.90
1219;DHT22;599;51.494;6.670;2022-09-09T09:47:06;19.10;99.90
1219;DHT22;599;51.494;6.670;2022-09-09T09:49:55;19.20;99.90
1219;DHT22;599;51.494;6.670;2022-09-09T09:52:29;19.40;99.90
1219;DHT22;599;51.494;6.670;2022-09-09T09:54:58;19.60;99.90
1219;DHT22;599;51.494;6.670;2022-09-09T09:57:31;19.60;99.90
1219;DHT22;599;51.494;6.670;2022-09-09T10:00:19;19.80;99.90
1219;DHT22;599;51.494;6.670;2022-09-09T10:02:59;20.00;99.90
1219;DHT22;599;51.494;6.670;2022-09-09T10:05:30;20.40;99.90
1219;DHT22;599;51.494;6.670;2022-09-09T10:08:10;20.80;99.90
1219;DHT22;599;51.494;6.670;2022-09-09T10:29:03;21.30;1.00
1219;DHT22;599;51.494;6.670;2022-09-09T10:34:48;20.70;1.00
1219;DHT22;599;51.494;6.670;2022-09-09T10:43:01;20.00;1.00
1219;DHT22;599;51.494;6.670;2022-09-09T10:57:17;19.60;1.00
1219;DHT22;599;51.494;6.670;2022-09-09T10:59:49;19.80;1.00
1219;DHT22;599;51.494;6.670;2022-09-09T11:02:24;20.00;1.00
1219;DHT22;599;51.494;6.670;2022-09-09T11:08:14;20.50;1.00
1219;DHT22;599;51.494;6.670;2022-09-09T11:13:29;20.80;1.00
1219;DHT22;599;51.494;6.670;2022-09-09T11:19:26;20.40;1.00
1219;DHT22;599;51.494;6.670;2022-09-09T11:21:58;20.30;1.00
1219;DHT22;599;51.494;6.670;2022-09-09T11:24:31;20.30;1.00
1219;DHT22;599;51.494;6.670;2022-09-09T11:27:45;20.40;1.00
1219;DHT22;599;51.494;6.670;2022-09-09T11:30:40;20.30;1.00
1219;DHT22;599;51.494;6.670;2022-09-09T11:33:41;20.50;1.00
1219;DHT22;599;51.494;6.670;2022-09-09T11:36:35;20.50;1.00
1219;DHT22;599;51.494;6.670;2022-09-09T11:39:38;20.70;1.00
1219;DHT22;599;51.494;6.670;2022-09-09T11:44:41;20.40;1.00
1219;DHT22;599;51.494;6.670;2022-09-09T11:47:29;20.40;1.00
1219;DHT22;599;51.494;6.670;2022-09-09T11:52:45;20.50;1.00
1219;DHT22;599;51.494;6.670;2022-09-09T11:55:33;20.40;1.00
1219;DHT22;599;51.494;6.670;2022-09-09T11:58:01;20.50;1.00
1219;DHT22;599;51.494;6.670;2022-09-09T12:00:36;20.40;1.00
1219;DHT22;599;51.494;6.670;2022-09-09T12:06:30;20.50;1.00
1219;DHT22;599;51.494;6.670;2022-09-09T12:09:31;20.70;1.00
1219;DHT22;599;51.494;6.670;2022-09-09T12:19:40;21.00;1.00
1219;DHT22;599;51.494;6.670;2022-09-09T12:22:51;21.20;1.00
1219;DHT22;599;51.494;6.670;2022-09-09T12:25:53;21.30;1.00
1219;DHT22;599;51.494;6.670;2022-09-09T12:28:55;21.40;1.00
1219;DHT22;599;51.494;6.670;2022-09-09T12:34:41;20.90;1.00
1219;DHT22;599;51.494;6.670;2022-09-09T12:39:59;20.20;1.00
1219;DHT22;599;51.494;6.670;2022-09-09T12:42:28;20.50;99.90
1219;DHT22;599;51.494;6.670;2022-09-09T12:45:02;20.30;99.90
1219;DHT22;599;51.494;6.670;2022-09-09T12:47:41;20.30;99.90
1219;DHT22;599;51.494;6.670;2022-09-09T12:50:19;20.20;1.00
1219;DHT22;599;51.494;6.670;2022-09-09T12:52:49;20.50;99.90
1219;DHT22;599;51.494;6.670;2022-09-09T12:55:21;20.60;1.00
1219;DHT22;599;51.494;6.670;2022-09-09T12:57:51;20.50;1.00
1219;DHT22;599;51.494;6.670;2022-09-09T13:00:33;20.50;1.00
1219;DHT22;599;51.494;6.670;2022-09-09T13:03:18;20.50;99.90
1219;DHT22;599;51.494;6.670;2022-09-09T13:05:50;20.50;1.00
1219;DHT22;599;51.494;6.670;2022-09-09T13:08:17;21.10;1.00
1219;DHT22;599;51.494;6.670;2022-09-09T13:11:03;22.80;4.70
1219;DHT22;599;51.494;6.670;2022-09-09T13:13:37;22.90;1.00
1219;DHT22;599;51.494;6.670;2022-09-09T13:16:15;22.60;1.00
1219;DHT22;599;51.494;6.670;2022-09-09T13:18:48;22.50;1.00
1219;DHT22;599;51.494;6.670;2022-09-09T13:21:14;22.20;1.00
1219;DHT22;599;51.494;6.670;2022-09-09T13:23:40;21.90;1.00
1219;DHT22;599;51.494;6.670;2022-09-09T13:26:26;21.80;23.60
1219;DHT22;599;51.494;6.670;2022-09-09T13:28:53;21.90;13.70
1219;DHT22;599;51.494;6.670;2022-09-09T13:33:49;21.80;1.00
1219;DHT22;599;51.494;6.670;2022-09-09T13:36:15;21.80;1.00
1219;DHT22;599;51.494;6.670;2022-09-09T13:38:55;21.70;34.40
1219;DHT22;599;51.494;6.670;2022-09-09T13:41:24;21.70;84.80
1219;DHT22;599;51.494;6.670;2022-09-09T13:44:02;22.30;28.10
1219;DHT22;599;51.494;6.670;2022-09-09T13:51:50;21.70;1.00
1219;DHT22;599;51.494;6.670;2022-09-09T13:54:19;21.80;1.00
1219;DHT22;599;51.494;6.670;2022-09-09T13:56:49;21.90;1.00
1219;DHT22;599;51.494;6.670;2022-09-09T13:59:18;21.80;1.00
1219;DHT22;599;51.494;6.670;2022-09-09T14:01:48;21.60;1.00
1219;DHT22;599;51.494;6.670;2022-09-09T14:04:18;21.30;1.00
1219;DHT22;599;51.494;6.670;2022-09-09T14:06:47;21.30;1.00
1219;DHT22;599;51.494;6.670;2022-09-09T14:09:17;21.10;1.00
1219;DHT22;599;51.494;6.670;2022-09-09T14:11:45;21.10;17.20
1219;DHT22;599;51.494;6.670;2022-09-09T14:14:11;21.10;1.00
1219;DHT22;599;51.494;6.670;2022-09-09T14:16:37;20.80;1.00
1219;DHT22;599;51.494;6.670;2022-09-09T14:19:10;20.70;15.20
1219;DHT22;599;51.494;6.670;2022-09-09T14:21:42;20.60;43.60
1219;DHT22;599;51.494;6.670;2022-09-09T14:24:10;20.50;72.70
1219;DHT22;599;51.494;6.670;2022-09-09T14:26:35;20.40;99.90
1219;DHT22;599;51.494;6.670;2022-09-09T14:29:02;20.20;1.00
1219;DHT22;599;51.494;6.670;2022-09-09T14:31:31;19.90;1.00
1219;DHT22;599;51.494;6.670;2022-09-09T14:33:57;19.40;1.00
1219;DHT22;599;51.494;6.670;2022-09-09T14:36:22;18.80;1.00
1219;DHT22;599;51.494;6.670;2022-09-09T14:38:49;18.30;1.00
1219;DHT22;599;51.494;6.670;2022-09-09T14:41:18;17.90;99.90
1219;DHT22;599;51.494;6.670;2022-09-09T14:43:45;17.50;99.90
1219;DHT22;599;51.494;6.670;2022-09-09T14:46:14;17.10;99.90
1219;DHT22;599;51.494;6.670;2022-09-09T14:48:41;16.70;1.00
1219;DHT22;599;51.494;6.670;2022-09-09T14:51:14;16.70;1.00
1219;DHT22;599;51.494;6.670;2022-09-09T14:53:42;16.50;44.70
1219;DHT22;599;51.494;6.670;2022-09-09T14:56:19;16.40;99.90
1219;DHT22;599;51.494;6.670;2022-09-09T14:58:47;16.40;99.90
1219;DHT22;599;51.494;6.670;2022-09-09T15:01:15;16.30;99.90
1219;DHT22;599;51.494;6.670;2022-09-09T15:03:48;16.30;1.00
1219;DHT22;599;51.494;6.670;2022-09-09T15:06:18;16.30;1.00
1219;DHT22;599;51.494;6.670;2022-09-09T15:08:45;16.30;1.00
1219;DHT22;599;51.494;6.670;2022-09-09T15:11:13;16.30;1.00
1219;DHT22;599;51.494;6.670;2022-09-09T15:13:40;16.30;1.00
1219;DHT22;599;51.494;6.670;2022-09-09T15:16:13;16.20;1.00
1219;DHT22;599;51.494;6.670;2022-09-09T15:18:41;16.20;1.00
1219;DHT22;599;51.494;6.670;2022-09-09T15:21:12;16.30;1.00
1219;DHT22;599;51.494;6.670;2022-09-09T15:23:43;16.50;1.00
1219;DHT22;599;51.494;6.670;2022-09-09T15:26:09;16.60;1.00
1219;DHT22;599;51.494;6.670;2022-09-09T15:28:37;16.80;1.00
1219;DHT22;599;51.494;6.670;2022-09-09T15:36:23;17.40;1.00
1219;DHT22;599;51.494;6.670;2022-09-09T15:38:51;17.60;1.00
1219;DHT22;599;51.494;6.670;2022-09-09T15:41:19;18.00;1.00
1219;DHT22;599;51.494;6.670;2022-09-09T15:43:48;18.40;1.00
1219;DHT22;599;51.494;6.670;2022-09-09T15:46:37;18.50;1.00
1219;DHT22;599;51.494;6.670;2022-09-09T15:49:09;18.70;1.00
1219;DHT22;599;51.494;6.670;2022-09-09T15:51:57;18.90;1.00
1219;DHT22;599;51.494;6.670;2022-09-09T15:54:25;19.00;1.00
1219;DHT22;599;51.494;6.670;2022-09-09T15:56:57;19.20;1.00
1219;DHT22;599;51.494;6.670;2022-09-09T15:59:25;19.20;1.00
1219;DHT22;599;51.494;6.670;2022-09-09T16:01:55;19.40;1.00
1219;DHT22;599;51.494;6.670;2022-09-09T16:04:23;19.30;1.00
1219;DHT22;599;51.494;6.670;2022-09-09T16:07:06;19.20;1.00
1219;DHT22;599;51.494;6.670;2022-09-09T16:09:33;19.00;1.00
1219;DHT22;599;51.494;6.670;2022-09-09T16:12:02;18.90;1.00
1219;DHT22;599;51.494;6.670;2022-09-09T16:14:31;18.90;1.00
1219;DHT22;599;51.494;6.670;2022-09-09T16:17:02;18.80;1.00
1219;DHT22;599;51.494;6.670;2022-09-09T16:19:28;18.70;1.00
1219;DHT22;599;51.494;6.670;2022-09-09T16:21:54;18.60;1.00
1219;DHT22;599;51.494;6.670;2022-09-09T16:24:20;18.60;1.00
1219;DHT22;599;51.494;6.670;2022-09-09T16:26:48;18.60;1.00
1219;DHT22;599;51.494;6.670;2022-09-09T16:29:16;18.60;1.00
1219;DHT22;599;51.494;6.670;2022-09-09T16:31:44;18.40;1.00
1219;DHT22;599;51.494;6.670;2022-09-09T16:34:11;18.20;1.00
1219;DHT22;599;51.494;6.670;2022-09-09T16:36:39;18.20;1.00
1219;DHT22;599;51.494;6.670;2022-09-09T16:39:11;18.20;1.00
1219;DHT22;599;51.494;6.670;2022-09-09T16:41:39;18.00;1.00
1219;DHT22;599;51.494;6.670;2022-09-09T16:44:08;18.00;1.00
1219;DHT22;599;51.494;6.670;2022-09-09T16:46:39;18.00;1.00
1219;DHT22;599;51.494;6.670;2022-09-09T16:49:12;18.10;1.00
1219;DHT22;599;51.494;6.670;2022-09-09T16:51:47;18.10;1.00
1219;DHT22;599;51.494;6.670;2022-09-09T16:54:16;17.90;1.00
1219;DHT22;599;51.494;6.670;2022-09-09T16:56:44;17.90;1.00
1219;DHT22;599;51.494;6.670;2022-09-09T16:59:18;17.80;1.00
1219;DHT22;599;51.494;6.670;2022-09-09T17:01:47;17.80;1.00
1219;DHT22;599;51.494;6.670;2022-09-09T17:04:20;17.90;1.00
1219;DHT22;599;51.494;6.670;2022-09-09T17:06:50;17.90;1.00
1219;DHT22;599;51.494;6.670;2022-09-09T17:09:18;17.90;1.00
1219;DHT22;599;51.494;6.670;2022-09-09T17:11:45;17.80;1.00
1219;DHT22;599;51.494;6.670;2022-09-09T17:14:16;17.80;1.00
1219;DHT22;599;51.494;6.670;2022-09-09T17:16:44;17.80;1.00
1219;DHT22;599;51.494;6.670;2022-09-09T17:19:10;17.90;1.00
1219;DHT22;599;51.494;6.670;2022-09-09T17:21:37;17.80;1.00
1219;DHT22;599;51.494;6.670;2022-09-09T17:24:03;17.80;1.00
1219;DHT22;599;51.494;6.670;2022-09-09T17:26:31;17.80;1.00
1219;DHT22;599;51.494;6.670;2022-09-09T17:28:59;17.80;1.00
1219;DHT22;599;51.494;6.670;2022-09-09T17:31:26;17.80;1.00
1219;DHT22;599;51.494;6.670;2022-09-09T17:33:54;17.80;1.00
1219;DHT22;599;51.494;6.670;2022-09-09T17:36:23;17.70;1.00
1219;DHT22;599;51.494;6.670;2022-09-09T17:38:54;17.70;1.00
1219;DHT22;599;51.494;6.670;2022-09-09T17:41:23;17.70;1.00
1219;DHT22;599;51.494;6.670;2022-09-09T17:43:51;17.70;1.00
1219;DHT22;599;51.494;6.670;2022-09-09T17:46:20;17.70;1.00
1219;DHT22;599;51.494;6.670;2022-09-09T17:48:49;17.70;1.00
1219;DHT22;599;51.494;6.670;2022-09-09T17:51:21;17.70;1.00
1219;DHT22;599;51.494;6.670;2022-09-09T17:53:53;17.70;1.00
1219;DHT22;599;51.494;6.670;2022-09-09T17:56:21;17.70;1.00
1219;DHT22;599;51.494;6.670;2022-09-09T17:58:52;17.60;1.00
1219;DHT22;599;51.494;6.670;2022-09-09T18:01:20;17.50;1.00
1219;DHT22;599;51.494;6.670;2022-09-09T18:03:49;17.60;1.00
1219;DHT22;599;51.494;6.670;2022-09-09T18:06:18;17.60;1.00
1219;DHT22;599;51.494;6.670;2022-09-09T18:08:51;17.50;1.00
1219;DHT22;599;51.494;6.670;2022-09-09T18:11:23;17.40;1.00
1219;DHT22;599;51.494;6.670;2022-09-09T18:13:52;17.40;1.00
1219;DHT22;599;51.494;6.670;2022-09-09T18:16:26;17.40;1.00
1219;DHT22;599;51.494;6.670;2022-09-09T18:18:54;17.40;1.00
1219;DHT22;599;51.494;6.670;2022-09-09T18:21:23;17.40;1.00
1219;DHT22;599;51.494;6.670;2022-09-09T18:23:51;17.40;1.00
1219;DHT22;599;51.494;6.670;2022-09-09T18:26:23;17.40;1.00
1219;DHT22;599;51.494;6.670;2022-09-09T18:28:58;17.50;1.00
1219;DHT22;599;51.494;6.670;2022-09-09T18:31:27;17.50;1.00
1219;DHT22;599;51.494;6.670;2022-09-09T18:33:55;17.50;1.00
1219;DHT22;599;51.494;6.670;2022-09-09T18:36:25;17.40;1.00
1219;DHT22;599;51.494;6.670;2022-09-09T18:38:55;17.50;1.00
1219;DHT22;599;51.494;6.670;2022-09-09T18:41:28;17.50;1.00
1219;DHT22;599;51.494;6.670;2022-09-09T18:44:01;17.50;1.00
1219;DHT22;599;51.494;6.670;2022-09-09T18:46:35;17.50;1.00
1219;DHT22;599;51.494;6.670;2022-09-09T18:49:02;17.60;1.00
1219;DHT22;599;51.494;6.670;2022-09-09T18:51:30;17.60;1.00
1219;DHT22;599;51.494;6.670;2022-09-09T18:54:04;17.60;1.00
1219;DHT22;599;51.494;6.670;2022-09-09T18:56:34;17.60;1.00
1219;DHT22;599;51.494;6.670;2022-09-09T18:59:02;17.60;1.00
1219;DHT22;599;51.494;6.670;2022-09-09T19:01:32;17.70;1.00
1219;DHT22;599;51.494;6.670;2022-09-09T19:04:01;17.60;1.00
1219;DHT22;599;51.494;6.670;2022-09-09T19:06:29;17.60;1.00
1219;DHT22;599;51.494;6.670;2022-09-09T19:08:56;17.50;1.00
1219;DHT22;599;51.494;6.670;2022-09-09T19:11:26;17.50;1.00
1219;DHT22;599;51.494;6.670;2022-09-09T19:14:03;17.50;1.00
1219;DHT22;599;51.494;6.670;2022-09-09T19:16:33;17.40;1.00
1219;DHT22;599;51.494;6.670;2022-09-09T19:19:02;17.40;1.00
1219;DHT22;599;51.494;6.670;2022-09-09T19:21:33;17.30;1.00
1219;DHT22;599;51.494;6.670;2022-09-09T19:24:07;17.20;1.00
1219;DHT22;599;51.494;6.670;2022-09-09T19:26:39;17.20;1.00
1219;DHT22;599;51.494;6.670;2022-09-09T19:29:09;17.20;1.00
1219;DHT22;599;51.494;6.670;2022-09-09T19:31:40;17.20;1.00
1219;DHT22;599;51.494;6.670;2022-09-09T19:34:10;17.00;1.00